Time;durP1;ratioP1;P1;durP2;ratioP2;P2;SDS_P1;SDS_P2;PMS_P1;PMS_P2;Temp;Humidity;BMP_temperature;BMP_pressure;BME280_temperature;BME280_humidity;BME280_pressure;Samples;Min_cycle;Max_cycle;Signal;HPM_P1;HPM_P2
2021/11/02 00:02:24;;;;;;;;;4.00;4.00;;;;;20.66;49.84;99203.38;5042333;28;45317;-75
2021/11/02 00:04:49;;;;;;;;;7.00;5.50;;;;;20.52;49.90;99190.91;5075972;28;45497;-75
2021/11/02 00:07:15;;;;;;;;;6.25;4.00;;;;;20.66;50.19;99207.81;5059094;28;45581;-75
2021/11/02 00:09:45;;;;;;;;;5.00;5.00;;;;;20.66;49.47;99200.72;5059803;28;45277;-75
2021/11/02 00:12:10;;;;;;;;;4.25;4.25;;;;;20.57;50.11;99188.84;5059051;28;45295;-75
2021/11/02 00:14:36;;;;;;;;;6.00;4.00;;;;;20.62;50.15;99201.00;5042111;28;45340;-75
2021/11/02 00:17:11;;;;;;;;;5.50;4.00;;;;;20.64;49.69;99205.25;5025577;28;45153;-75
2021/11/02 00:19:40;;;;;;;;;5.50;3.50;;;;;20.67;49.75;99205.06;5038755;28;45467;-75
2021/11/02 00:22:15;;;;;;;;;5.75;5.50;;;;;20.68;49.58;99200.66;5052236;28;45348;-75
2021/11/02 00:27:19;;;;;;;;;5.25;3.25;;;;;20.68;49.63;99185.59;5043883;28;45655;-75
2021/11/02 00:29:44;;;;;;;;;3.50;3.25;;;;;20.69;49.81;99192.59;5041950;28;48035;-75
2021/11/02 00:32:10;;;;;;;;;3.25;3.25;;;;;20.68;50.12;99188.25;5058856;28;45276;-75
2021/11/02 00:34:36;;;;;;;;;2.75;2.75;;;;;20.67;49.77;99191.81;5042338;28;45322;-74
2021/11/02 00:37:01;;;;;;;;;4.50;3.00;;;;;20.67;50.10;99181.22;5041846;28;56589;-75
2021/11/02 00:39:27;;;;;;;;;4.00;4.00;;;;;20.69;49.81;99186.44;5058395;28;47066;-75
2021/11/02 00:41:52;;;;;;;;;6.50;5.00;;;;;20.68;49.83;99184.75;5058466;28;45281;-75
2021/11/02 00:44:20;;;;;;;;;3.50;3.00;;;;;20.68;49.96;99188.25;5058455;28;46157;-74
2021/11/02 00:46:46;;;;;;;;;3.25;3.25;;;;;20.68;50.39;99176.78;5058733;28;45348;-75
2021/11/02 00:49:17;;;;;;;;;4.00;3.50;;;;;20.68;50.24;99169.69;5074933;28;56771;-75
2021/11/02 00:51:43;;;;;;;;;3.50;3.00;;;;;20.68;50.17;99171.50;5059161;28;45280;-75
2021/11/02 00:54:09;;;;;;;;;5.00;3.75;;;;;20.66;50.26;99158.31;5059761;28;45380;-74
2021/11/02 00:56:34;;;;;;;;;4.00;3.75;;;;;20.63;50.27;99153.19;5041428;28;45471;-75
2021/11/02 00:59:00;;;;;;;;;2.75;2.00;;;;;20.64;50.25;99157.53;5059962;28;45545;-75
2021/11/02 01:01:25;;;;;;;;;3.50;3.00;;;;;20.66;50.04;99155.66;5037365;28;51951;-75
2021/11/02 01:03:51;;;;;;;;;3.75;3.00;;;;;20.63;50.01;99153.19;5060909;28;45851;-75
2021/11/02 01:06:16;;;;;;;;;4.25;3.00;;;;;20.63;50.30;99150.53;5062862;28;50240;-75
2021/11/02 01:08:41;;;;;;;;;3.00;2.00;;;;;20.61;50.19;99157.72;5061262;28;55065;-74
2021/11/02 01:11:07;;;;;;;;;3.00;3.00;;;;;20.62;50.65;99154.13;5078672;28;45293;-74
2021/11/02 01:13:33;;;;;;;;;6.75;4.75;;;;;20.61;50.18;99152.44;5078849;28;45520;-75
2021/11/02 01:15:58;;;;;;;;;3.00;3.00;;;;;20.62;50.41;99153.28;5028408;28;45362;-75
2021/11/02 01:18:24;;;;;;;;;5.00;3.50;;;;;20.61;50.09;99147.13;5028271;28;46994;-75
2021/11/02 01:20:58;;;;;;;;;2.75;2.75;;;;;20.57;50.22;99158.81;5044625;28;55050;-75
2021/11/02 01:23:23;;;;;;;;;3.75;3.75;;;;;20.56;50.48;99149.16;5061851;28;45446;-75
2021/11/02 01:25:49;;;;;;;;;5.00;2.50;;;;;20.55;50.21;99152.78;5062782;28;45408;-75
2021/11/02 01:28:14;;;;;;;;;3.25;3.00;;;;;20.57;50.44;99145.56;5061735;28;45965;-75
2021/11/02 01:30:43;;;;;;;;;3.50;3.50;;;;;20.58;50.43;99141.97;5061294;28;45438;-75
2021/11/02 01:33:08;;;;;;;;;4.00;4.00;;;;;20.60;50.49;99150.72;5045132;28;45278;-75
2021/11/02 01:35:34;;;;;;;;;3.75;3.50;;;;;20.59;50.26;99141.06;5062573;28;45231;-75
2021/11/02 01:38:03;;;;;;;;;4.00;4.00;;;;;20.58;50.34;99136.69;5062666;28;45269;-75
2021/11/02 01:40:28;;;;;;;;;3.50;3.25;;;;;20.60;49.79;99135.66;5044958;28;45368;-75
2021/11/02 01:42:54;;;;;;;;;2.00;2.00;;;;;20.51;50.07;99125.59;5062854;28;45293;-75
2021/11/02 01:45:21;;;;;;;;;4.25;3.25;;;;;20.58;49.98;99140.19;5060818;28;54322;-74
2021/11/02 01:47:47;;;;;;;;;4.00;4.00;;;;;20.58;49.94;99139.31;5028240;28;47249;-75
2021/11/02 01:50:13;;;;;;;;;4.00;3.25;;;;;20.56;50.41;99139.41;5062471;28;45265;-74
2021/11/02 01:52:40;;;;;;;;;2.00;2.00;;;;;20.56;50.17;99141.22;5062645;28;45429;-75
2021/11/02 01:55:06;;;;;;;;;3.00;3.00;;;;;20.56;50.42;99139.41;5044641;28;45490;-75
2021/11/02 01:57:31;;;;;;;;;2.75;2.25;;;;;20.56;50.33;99149.16;5048278;28;46489;-75
2021/11/02 01:59:57;;;;;;;;;2.00;2.00;;;;;20.53;50.36;99144.06;5058206;28;45402;-75
2021/11/02 02:02:33;;;;;;;;;3.50;2.00;;;;;20.49;50.64;99143.34;5061485;28;45226;-74
2021/11/02 02:05:11;;;;;;;;;2.75;2.25;;;;;20.51;50.91;99154.75;5060988;28;45237;-75
2021/11/02 02:08:02;;;;;;;;;4.25;3.00;;;;;20.51;50.66;99146.81;5060982;28;46179;-74
2021/11/02 02:10:30;;;;;;;;;3.75;3.00;;;;;20.51;50.59;99149.44;5077531;28;45351;-75
2021/11/02 02:13:43;;;;;;;;;4.25;4.25;;;;;20.48;50.83;99152.25;5077846;28;45331;-74
2021/11/02 02:16:13;;;;;;;;;2.00;2.00;;;;;20.49;51.13;99147.81;5049856;28;45586;-74
2021/11/02 02:18:45;;;;;;;;;4.00;2.25;;;;;20.48;51.11;99149.59;5060911;28;46176;-75
2021/11/02 02:21:16;;;;;;;;;3.75;2.00;;;;;20.49;50.88;99153.09;5044423;28;45306;-74
2021/11/02 02:24:05;;;;;;;;;4.25;3.00;;;;;20.50;51.12;99149.50;5062000;28;45369;-75
2021/11/02 02:26:49;;;;;;;;;3.75;3.75;;;;;20.51;51.01;99144.16;5060718;28;45453;-75
2021/11/02 02:29:15;;;;;;;;;3.25;2.50;;;;;20.50;50.15;99150.41;5061769;28;45468;-75
2021/11/02 02:31:43;;;;;;;;;2.25;2.25;;;;;20.47;50.75;99141.75;5060509;28;48680;-72
2021/11/02 02:34:12;;;;;;;;;3.50;3.25;;;;;20.46;50.75;99138.25;5044113;28;45394;-75
2021/11/02 02:36:38;;;;;;;;;3.25;2.00;;;;;20.44;50.84;99144.59;5044795;28;45444;-75
2021/11/02 02:39:04;;;;;;;;;4.00;3.25;;;;;20.42;51.26;99139.34;5043428;28;46406;-74
2021/11/02 02:41:30;;;;;;;;;3.50;3.50;;;;;20.44;50.58;99142.78;5060583;28;45285;-74
2021/11/02 02:43:55;;;;;;;;;5.50;4.25;;;;;20.45;50.70;99136.53;5043680;28;45404;-72
2021/11/02 02:46:21;;;;;;;;;3.25;2.00;;;;;20.42;50.75;99138.50;5061595;28;45391;-74
2021/11/02 02:48:46;;;;;;;;;4.00;3.00;;;;;20.46;51.16;99138.25;5060122;28;45337;-75
2021/11/02 02:51:12;;;;;;;;;4.00;3.00;;;;;20.45;50.81;99140.97;5043798;28;45292;-74
2021/11/02 02:53:42;;;;;;;;;2.00;2.00;;;;;20.47;50.04;99139.09;5043487;28;45426;-74
2021/11/02 02:56:08;;;;;;;;;3.75;2.25;;;;;20.45;50.45;99131.25;5061376;28;45328;-75
2021/11/02 02:58:35;;;;;;;;;2.00;2.00;;;;;20.46;50.88;99129.44;5059936;28;45444;-75
2021/11/02 03:01:00;;;;;;;;;6.00;4.25;;;;;20.47;50.37;99132.00;5043684;28;45368;-74
2021/11/02 03:03:26;;;;;;;;;2.00;2.00;;;;;20.45;50.87;99119.78;5026785;28;45226;-75
2021/11/02 03:05:53;;;;;;;;;3.00;1.75;;;;;20.46;50.15;99124.13;5043321;28;45477;-75
2021/11/02 03:08:19;;;;;;;;;3.75;2.00;;;;;20.44;50.54;99124.22;5043361;28;48269;-75
2021/11/02 03:10:44;;;;;;;;;3.00;2.25;;;;;20.45;50.66;99125.09;5026730;28;45405;-75
2021/11/02 03:13:12;;;;;;;;;4.00;2.50;;;;;20.44;51.05;99124.22;5026645;28;45265;-75
2021/11/02 03:19:15;;;;;;;;;2.25;2.00;;;;;20.45;50.92;99127.75;5043050;28;45944;-74
2021/11/02 03:48:54;;;;;;;;;2.00;2.00;;;;;20.39;51.14;99141.28;5052176;28;45333;-74
2021/11/02 03:51:31;;;;;;;;;3.50;2.75;;;;;20.36;51.01;99128.22;5044252;28;46053;-75
2021/11/02 03:54:38;;;;;;;;;3.50;3.50;;;;;20.35;51.10;99129.16;5039297;28;45473;-73
2021/11/02 04:00:07;;;;;;;;;1.00;1.00;;;;;20.37;50.99;99132.59;5045291;28;45195;-73
2021/11/02 04:27:55;;;;;;;;;1.00;1.00;;;;;20.38;50.95;99142.22;4966767;28;45281;-74
2021/11/02 05:59:59;;;;;;;;;1.75;1.75;;;;;20.83;52.10;99167.94;5058342;28;45265;-73
2021/11/02 06:05:08;;;;;;;;;2.00;1.00;;;;;20.96;52.75;99158.34;5062836;28;45589;-76
2021/11/02 06:29:31;;;;;;;;;1.75;1.75;;;;;21.80;49.66;99177.16;5046461;28;45398;-84
2021/11/02 06:32:02;;;;;;;;;1.50;1.50;;;;;21.83;49.72;99176.13;5043566;28;45549;-84
2021/11/02 06:37:27;;;;;;;;;1.00;1.00;;;;;21.84;49.50;99191.97;5055932;28;45530;-80
2021/11/02 06:45:34;;;;;;;;;2.25;2.00;;;;;21.84;49.94;99181.34;5052471;28;45332;-78
2021/11/02 06:57:15;;;;;;;;;5.75;1.75;;;;;21.84;50.24;99205.25;5046607;28;45996;-75
2021/11/02 07:19:07;;;;;;;;;2.25;1.25;;;;;21.30;47.68;99212.94;5060653;28;45544;-74
2021/11/02 07:22:21;;;;;;;;;5.00;2.25;;;;;21.29;47.62;99213.91;5059014;28;45355;-75
2021/11/02 07:27:26;;;;;;;;;3.00;3.00;;;;;21.28;47.71;99216.63;5054282;28;45472;-70
2021/11/02 08:45:07;;;;;;;;;2.75;2.00;;;;;21.12;45.42;99289.13;5044293;28;45585;-72
2021/11/02 08:47:35;;;;;;;;;2.50;2.00;;;;;21.11;44.85;99295.41;5043037;28;46197;-72
2021/11/02 08:50:04;;;;;;;;;5.50;3.75;;;;;21.05;45.24;99301.03;5059945;28;45326;-72
2021/11/02 08:52:32;;;;;;;;;5.25;1.75;;;;;21.06;45.12;99305.41;5041829;28;45292;-71
2021/11/02 08:54:57;;;;;;;;;1.50;1.50;;;;;21.07;45.05;99303.59;5074270;28;45299;-72
2021/11/02 08:57:23;;;;;;;;;2.75;1.00;;;;;21.04;44.88;99301.97;5041040;28;47224;-72
2021/11/02 08:59:50;;;;;;;;;2.00;1.00;;;;;21.04;44.87;99304.63;5041410;28;45390;-72
2021/11/02 09:02:29;;;;;;;;;3.50;1.00;;;;;21.04;44.95;99309.09;5041708;28;45410;-73
2021/11/02 09:05:00;;;;;;;;;1.50;0.50;;;;;21.09;44.36;99313.16;5040733;28;45717;-72
2021/11/02 09:07:26;;;;;;;;;2.25;1.00;;;;;21.13;44.78;99311.22;5041698;28;46398;-71
2021/11/02 09:09:52;;;;;;;;;2.00;1.00;;;;;21.18;45.09;99315.31;5057353;28;49975;-73
2021/11/02 09:12:17;;;;;;;;;1.00;1.00;;;;;21.24;44.61;99318.56;5040553;28;45202;-72
2021/11/02 09:14:45;;;;;;;;;2.00;1.00;;;;;21.26;44.29;99301.59;5058535;28;45409;-72
2021/11/02 09:17:11;;;;;;;;;2.25;1.25;;;;;21.24;43.94;99303.50;5024811;28;45558;-73
2021/11/02 09:19:36;;;;;;;;;4.50;2.00;;;;;21.28;44.36;99309.50;5057720;28;45564;-73
2021/11/02 09:22:03;;;;;;;;;7.00;2.50;;;;;21.31;44.22;99314.66;5043058;28;45449;-73
2021/11/02 09:24:29;;;;;;;;;3.75;3.25;;;;;21.25;44.03;99304.34;5042736;28;45527;-73
2021/11/02 09:26:54;;;;;;;;;10.50;4.00;;;;;21.26;43.66;99311.34;5044139;28;46072;-74
2021/11/02 09:29:20;;;;;;;;;4.50;3.25;;;;;21.24;43.92;99314.09;5044434;28;45470;-74
2021/11/02 09:31:46;;;;;;;;;9.75;3.00;;;;;21.23;44.05;99307.09;5044820;28;45498;-74
2021/11/02 09:34:11;;;;;;;;;2.00;1.25;;;;;21.28;43.94;99313.00;5044393;28;46543;-72
2021/11/02 09:37:16;;;;;;;;;5.00;2.00;;;;;21.30;43.73;99310.28;5060777;28;45867;-73
2021/11/02 09:39:48;;;;;;;;;4.00;3.25;;;;;21.28;43.46;99302.38;5045691;28;45916;-76
2021/11/02 09:42:51;;;;;;;;;3.00;3.00;;;;;21.31;43.88;99307.53;5045000;28;45332;-75
2021/11/02 09:45:44;;;;;;;;;5.25;2.75;;;;;21.30;44.09;99312.94;5062288;28;45543;-71
2021/11/02 09:48:25;;;;;;;;;3.50;2.50;;;;;21.31;43.79;99312.00;5060773;28;45350;-72
2021/11/02 09:51:18;;;;;;;;;6.75;3.25;;;;;21.32;43.58;99314.56;5062519;28;45314;-71
2021/11/02 09:53:51;;;;;;;;;6.00;3.75;;;;;21.33;43.62;99310.94;5077104;28;45348;-72
2021/11/02 09:56:47;;;;;;;;;3.25;2.00;;;;;21.34;43.70;99317.97;5044700;28;45331;-71
2021/11/02 09:59:22;;;;;;;;;3.00;2.00;;;;;21.36;43.32;99324.03;5044255;28;45672;-72
2021/11/02 10:02:22;;;;;;;;;2.00;1.00;;;;;21.38;43.14;99314.22;5062183;28;45330;-72
2021/11/02 10:05:13;;;;;;;;;1.50;1.00;;;;;21.42;43.21;99323.69;5062563;28;45247;-71
2021/11/02 10:08:00;;;;;;;;;6.50;2.50;;;;;21.44;42.93;99320.94;5076833;28;45596;-71
2021/11/02 10:10:50;;;;;;;;;2.50;1.00;;;;;21.51;42.98;99313.47;5059938;28;45347;-71
2021/11/02 10:13:37;;;;;;;;;2.25;1.75;;;;;21.53;42.34;99322.19;5047124;28;45420;-70
2021/11/02 10:16:21;;;;;;;;;3.25;1.50;;;;;21.55;42.63;99326.50;5062233;28;45357;-72
2021/11/02 10:19:38;;;;;;;;;6.25;1.00;;;;;21.56;42.05;99332.66;5061497;28;45364;-72
2021/11/02 10:22:25;;;;;;;;;2.25;1.00;;;;;21.55;42.56;99341.56;5019542;28;47766;-72
2021/11/02 10:25:10;;;;;;;;;2.50;1.00;;;;;21.56;42.78;99343.28;5079018;28;45487;-73
2021/11/02 10:28:00;;;;;;;;;1.00;1.00;;;;;21.55;42.34;99344.22;5061797;28;45514;-73
2021/11/02 10:30:44;;;;;;;;;4.50;3.50;;;;;21.58;42.96;99349.34;5076794;28;45239;-76
2021/11/02 10:33:16;;;;;;;;;4.50;4.50;;;;;21.57;43.00;99345.00;5077754;28;47626;-78
2021/11/02 10:36:17;;;;;;;;;2.50;2.50;;;;;21.53;42.61;99356.72;5058843;28;45217;-75
2021/11/02 10:38:48;;;;;;;;;8.00;3.25;;;;;21.48;43.41;99353.50;5038649;28;45438;-77
2021/11/02 10:41:20;;;;;;;;;6.50;4.00;;;;;21.50;44.16;99352.44;5061314;28;45346;-75
2021/11/02 10:43:58;;;;;;;;;6.75;3.25;;;;;21.53;44.00;99359.38;5058850;28;45300;-75
2021/11/02 10:46:28;;;;;;;;;3.00;1.00;;;;;21.48;43.83;99348.19;5061058;28;45238;-77
2021/11/02 10:48:54;;;;;;;;;4.25;2.25;;;;;21.43;43.83;99354.59;5032241;28;45778;-76
2021/11/02 10:51:39;;;;;;;;;4.75;2.50;;;;;21.42;44.37;99344.91;5052928;28;47648;-77
2021/11/02 10:54:21;;;;;;;;;1.00;1.00;;;;;21.43;44.02;99356.41;5090553;27;47416;-73
2021/11/02 10:57:02;;;;;;;;;3.75;2.50;;;;;21.37;43.45;99344.34;5072391;28;45787;-72
2021/11/02 10:59:28;;;;;;;;;2.00;1.50;;;;;21.39;43.65;99344.25;5079724;28;45520;-73
2021/11/02 11:02:00;;;;;;;;;3.25;2.00;;;;;21.38;43.50;99335.44;5025406;28;64154;-75
2021/11/02 11:04:31;;;;;;;;;2.00;2.00;;;;;21.38;43.31;99340.75;5043556;28;45679;-75
2021/11/02 11:06:58;;;;;;;;;2.25;1.00;;;;;21.42;42.90;99338.75;5061229;28;45353;-75
2021/11/02 11:09:24;;;;;;;;;1.00;0.75;;;;;21.41;42.73;99342.38;5059282;28;45597;-75
2021/11/02 11:11:55;;;;;;;;;2.00;0.00;;;;;21.38;42.83;99337.25;5060037;28;45327;-75
2021/11/02 11:14:29;;;;;;;;;1.50;1.50;;;;;21.36;42.71;99326.69;5042876;28;45895;-75
2021/11/02 11:16:54;;;;;;;;;1.50;1.50;;;;;21.38;43.10;99334.59;5042992;28;45431;-75
2021/11/02 11:19:28;;;;;;;;;1.25;1.00;;;;;21.39;42.61;99331.84;5025334;28;55060;-75
2021/11/02 11:21:58;;;;;;;;;1.00;1.00;;;;;21.42;42.84;99333.44;5042891;28;45281;-75
2021/11/02 11:25:35;;;;;;;;;;;;;;;;;;;;;
2021/11/02 11:28:55;;;;;;;;;2.00;1.00;;;;;21.37;42.31;99311.63;4989582;28;71955;-76
2021/11/02 11:31:22;;;;;;;;;0.00;0.00;;;;;21.47;42.51;99312.81;4976102;28;45740;-75
2021/11/02 11:33:48;;;;;;;;;1.00;1.00;;;;;21.53;42.48;99319.56;5042352;28;45342;-75
2021/11/02 11:36:14;;;;;;;;;3.00;1.25;;;;;21.53;43.00;99316.91;5042720;28;45459;-75
2021/11/02 11:38:40;;;;;;;;;0.25;0.25;;;;;21.53;42.76;99315.09;5042342;28;64876;-73
2021/11/02 11:41:08;;;;;;;;;1.75;1.75;;;;;21.49;42.81;99318.03;5043594;28;45474;-73
2021/11/02 11:47:03;;;;;;;;;0.00;0.00;;;;;21.47;42.98;99318.13;5044520;28;46509;-77
2021/11/02 11:49:28;;;;;;;;;2.00;1.25;;;;;21.38;42.57;99302.75;5059057;28;45378;-77
2021/11/02 11:51:58;;;;;;;;;2.00;0.50;;;;;21.49;42.29;99318.88;5059038;28;45362;-77
2021/11/02 11:54:34;;;;;;;;;1.00;1.00;;;;;21.44;42.25;99305.00;5060151;28;45517;-74
2021/11/02 11:57:00;;;;;;;;;2.00;2.00;;;;;21.33;42.39;99294.19;5038872;28;47285;-74
2021/11/02 11:59:26;;;;;;;;;2.00;1.00;;;;;21.36;42.56;99294.00;5035605;28;45392;-75
2021/11/02 12:02:30;;;;;;;;;0.25;0.25;;;;;21.38;42.41;99297.44;5042181;28;45482;-75
2021/11/02 12:04:59;;;;;;;;;2.75;0.50;;;;;21.41;42.47;99297.25;5019326;28;45596;-75
2021/11/02 12:07:51;;;;;;;;;2.75;1.00;;;;;21.37;42.44;99296.59;5041969;28;47787;-74
2021/11/02 12:10:17;;;;;;;;;1.00;1.00;;;;;21.34;42.61;99290.56;5075424;28;45371;-74
2021/11/02 12:12:55;;;;;;;;;3.75;1.00;;;;;21.32;42.50;99285.34;5041719;28;45498;-75
2021/11/02 12:16:21;;;;;;;;;1.00;1.00;;;;;21.30;42.60;99289.91;5042757;28;45313;-76
2021/11/02 12:18:49;;;;;;;;;2.50;1.00;;;;;21.13;42.83;99260.81;5084572;27;47264;-76
2021/11/02 12:21:17;;;;;;;;;2.75;1.50;;;;;21.28;42.88;99285.63;5042187;28;45276;-77
2021/11/02 12:23:45;;;;;;;;;1.25;1.25;;;;;21.26;42.26;99279.50;5041858;28;45380;-76
2021/11/02 12:26:13;;;;;;;;;1.75;1.50;;;;;21.25;42.30;99283.13;5041874;28;45613;-74
2021/11/02 12:28:41;;;;;;;;;2.00;1.00;;;;;21.22;42.73;99286.81;5041567;28;47712;-74
2021/11/02 12:31:25;;;;;;;;;1.50;1.00;;;;;21.21;42.08;99287.75;5059028;28;45497;-75
2021/11/02 12:33:52;;;;;;;;;0.50;0.50;;;;;21.17;41.97;99289.72;5041684;28;45432;-74
2021/11/02 12:36:27;;;;;;;;;1.75;1.75;;;;;21.17;42.13;99284.41;5044601;28;45535;-75
2021/11/02 12:39:31;;;;;;;;;0.75;0.75;;;;;21.14;42.08;99267.81;5039940;28;47713;-76
2021/11/02 12:41:58;;;;;;;;;1.00;1.00;;;;;21.20;41.66;99277.19;5018219;28;45331;-75
2021/11/02 12:44:34;;;;;;;;;1.00;0.00;;;;;21.12;41.87;99259.09;5042069;28;45402;-75
2021/11/02 12:47:05;;;;;;;;;1.00;0.00;;;;;21.05;41.43;99260.41;5041014;28;45486;-76
2021/11/02 12:49:47;;;;;;;;;1.00;1.00;;;;;21.10;41.41;99264.47;5058377;28;45243;-75
2021/11/02 12:55:07;;;;;;;;;0.50;0.50;;;;;21.10;41.55;99268.94;5044227;28;45512;-75
2021/11/02 12:57:36;;;;;;;;;2.75;1.00;;;;;21.11;41.22;99257.38;5058177;28;45293;-75
2021/11/02 13:00:13;;;;;;;;;0.75;0.75;;;;;21.08;41.54;99253.09;5061473;28;45958;-75
2021/11/02 13:02:41;;;;;;;;;0.00;0.00;;;;;21.13;41.57;99260.81;5062090;28;45436;-75
2021/11/02 13:05:42;;;;;;;;;;;;;;;;;;;;;
2021/11/02 13:08:33;;;;;;;;;0.75;0.75;;;;;21.00;41.22;99239.44;5047641;28;72812;-74
2021/11/02 13:11:45;;;;;;;;;1.00;0.00;;;;;21.05;41.08;99249.78;5046563;28;46264;-75
2021/11/02 13:14:21;;;;;;;;;1.00;1.00;;;;;20.99;41.13;99237.72;5015562;28;45578;-75
2021/11/02 13:17:17;;;;;;;;;1.00;1.00;;;;;20.94;41.28;99228.31;5046348;28;45331;-74
2021/11/02 13:20:10;;;;;;;;;0.00;0.00;;;;;21.03;40.98;99244.56;5054288;28;45257;-74
2021/11/02 13:22:56;;;;;;;;;0.75;0.75;;;;;21.04;41.19;99251.59;5065752;28;46258;-74
2021/11/02 13:25:37;;;;;;;;;;;;;;;;;;;;;
2021/11/02 13:28:03;;;;;;;;;3.00;1.00;;;;;20.93;41.03;99247.81;5045772;28;68089;-74
2021/11/02 13:30:47;;;;;;;;;0.00;0.00;;;;;20.97;40.92;99247.56;5054466;28;45430;-74
2021/11/02 13:33:17;;;;;;;;;1.75;0.75;;;;;20.94;40.99;99249.53;5061308;28;45500;-74
2021/11/02 13:36:02;;;;;;;;;1.50;1.00;;;;;20.93;41.01;99246.00;5074424;28;45474;-74
2021/11/02 13:38:40;;;;;;;;;2.50;2.00;;;;;20.92;40.94;99231.06;5056330;28;45294;-74
2021/11/02 13:41:49;;;;;;;;;2.00;0.00;;;;;20.94;41.08;99231.84;5062082;28;45702;-73
2021/11/02 13:44:15;;;;;;;;;3.00;1.75;;;;;20.97;41.36;99230.81;5077876;28;46956;-74
2021/11/02 13:46:53;;;;;;;;;1.00;1.00;;;;;20.98;41.29;99219.25;5043802;28;45458;-74
2021/11/02 13:49:39;;;;;;;;;4.50;2.00;;;;;21.00;40.97;99222.66;5044668;28;45340;-75
2021/11/02 13:52:05;;;;;;;;;1.00;1.00;;;;;20.98;41.30;99219.25;5049902;28;45266;-75
2021/11/02 13:54:33;;;;;;;;;1.25;1.25;;;;;21.00;41.10;99217.34;5040615;28;45411;-75
2021/11/02 13:56:59;;;;;;;;;3.75;1.75;;;;;21.00;41.32;99212.91;5043513;28;45281;-75
2021/11/02 13:59:32;;;;;;;;;3.00;1.50;;;;;20.93;40.93;99198.28;5043872;28;45364;-75
2021/11/02 14:01:58;;;;;;;;;8.50;2.00;;;;;21.07;41.47;99224.00;5045325;28;45386;-74
2021/11/02 14:04:47;;;;;;;;;7.00;2.75;;;;;21.07;41.29;99229.31;5043690;28;53303;-75
2021/11/02 14:07:20;;;;;;;;;4.75;2.00;;;;;21.14;41.96;99230.69;5045154;28;45356;-75
2021/11/02 14:09:56;;;;;;;;;3.00;1.50;;;;;21.16;41.41;99226.97;5040234;28;45456;-75
2021/11/02 14:12:29;;;;;;;;;2.00;2.00;;;;;21.17;41.80;99220.72;5036750;28;45979;-74
2021/11/02 14:15:17;;;;;;;;;1.50;1.00;;;;;21.19;41.30;99217.97;5044071;28;49304;-73
2021/11/02 14:18:19;;;;;;;;;1.00;1.00;;;;;21.19;41.42;99212.69;5054744;28;45817;-73
2021/11/02 14:20:57;;;;;;;;;1.50;1.50;;;;;21.17;41.38;99215.44;5060775;28;45473;-74
2021/11/02 14:24:04;;;;;;;;;2.00;1.00;;;;;21.18;41.52;99213.63;5061797;28;45496;-73
2021/11/02 14:26:35;;;;;;;;;1.25;1.00;;;;;21.19;41.76;99217.97;5040460;28;46044;-76
2021/11/02 14:29:01;;;;;;;;;5.25;4.25;;;;;21.14;42.63;99209.47;5060946;28;45488;-75
2021/11/02 14:31:38;;;;;;;;;1.75;1.75;;;;;21.20;42.34;99217.06;5044189;28;45454;-75
2021/11/02 14:34:30;;;;;;;;;5.25;1.50;;;;;21.19;42.12;99215.31;5061614;28;45241;-75
2021/11/02 14:37:09;;;;;;;;;2.00;2.00;;;;;21.19;42.47;99225.94;5006935;28;47812;-75
2021/11/02 14:39:54;;;;;;;;;3.50;1.75;;;;;21.15;42.37;99217.31;5059850;28;45447;-75
2021/11/02 14:42:40;;;;;;;;;3.50;2.50;;;;;21.15;42.57;99221.78;5061309;28;45234;-76
2021/11/02 14:45:44;;;;;;;;;3.25;2.75;;;;;21.14;42.22;99225.38;5061325;28;45383;-76
2021/11/02 14:48:32;;;;;;;;;4.00;2.50;;;;;21.14;42.33;99217.41;5043303;28;46835;-75
2021/11/02 14:50:58;;;;;;;;;4.00;1.00;;;;;21.14;42.28;99217.41;5076636;28;45419;-75
2021/11/02 14:53:37;;;;;;;;;4.00;1.00;;;;;21.11;42.21;99225.53;5059925;28;45366;-75
2021/11/02 14:56:28;;;;;;;;;2.50;2.00;;;;;21.10;42.52;99221.16;5043515;28;45557;-76
2021/11/02 14:58:58;;;;;;;;;1.25;1.00;;;;;21.03;42.10;99209.22;5059241;28;47236;-75
2021/11/02 15:01:39;;;;;;;;;3.00;1.75;;;;;21.07;42.03;99219.56;5043047;28;45289;-76
2021/11/02 15:04:06;;;;;;;;;1.25;1.00;;;;;21.06;42.30;99222.31;5061529;28;45267;-77
2021/11/02 15:06:57;;;;;;;;;1.75;1.00;;;;;21.05;42.31;99215.31;5059384;28;45272;-76
2021/11/02 15:09:34;;;;;;;;;2.75;1.00;;;;;21.05;42.85;99215.31;5045330;28;45370;-76
2021/11/02 15:11:59;;;;;;;;;2.00;2.00;;;;;21.03;42.13;99212.75;5043401;28;46487;-76
2021/11/02 15:14:27;;;;;;;;;2.25;1.00;;;;;20.98;42.28;99209.50;5042981;28;45435;-75
2021/11/02 15:16:58;;;;;;;;;2.00;2.00;;;;;21.07;42.38;99216.06;5059770;28;45563;-76
2021/11/02 15:19:25;;;;;;;;;2.25;1.00;;;;;21.06;42.01;99201.09;5043231;28;45362;-76
2021/11/02 15:21:57;;;;;;;;;1.50;1.00;;;;;21.09;42.30;99206.19;5025749;28;45409;-77
2021/11/02 15:24:26;;;;;;;;;3.00;2.00;;;;;21.13;43.11;99207.75;5059396;28;45473;-75
2021/11/02 15:27:04;;;;;;;;;2.00;2.00;;;;;21.16;44.03;99211.06;5060087;28;45213;-80
2021/11/02 15:29:41;;;;;;;;;4.75;2.00;;;;;21.17;44.21;99204.81;5076205;28;45500;-78
2021/11/02 15:32:14;;;;;;;;;3.50;3.00;;;;;21.18;44.37;99200.34;5040389;28;45466;-78
2021/11/02 15:34:47;;;;;;;;;4.00;3.00;;;;;21.19;43.64;99202.06;5040500;28;45380;-78
2021/11/02 15:37:37;;;;;;;;;2.50;2.00;;;;;21.17;44.19;99198.66;5043029;28;45929;-78
2021/11/02 15:40:18;;;;;;;;;5.00;1.25;;;;;21.18;44.47;99195.91;5053844;28;48775;-79
2021/11/02 15:42:52;;;;;;;;;2.00;1.50;;;;;21.14;43.99;99185.56;5042556;28;45440;-78
2021/11/02 15:45:37;;;;;;;;;6.75;4.00;;;;;21.19;44.75;99199.41;5042648;28;45180;-78
2021/11/02 15:48:11;;;;;;;;;2.00;1.00;;;;;21.18;44.83;99195.06;5029414;28;45606;-78
2021/11/02 15:50:41;;;;;;;;;4.75;2.50;;;;;21.17;44.17;99199.50;5043177;28;48886;-78
2021/11/02 15:53:09;;;;;;;;;5.25;3.00;;;;;21.15;44.94;99195.25;5059850;28;45437;-78
2021/11/02 15:55:37;;;;;;;;;5.25;1.00;;;;;21.16;44.40;99196.94;5059486;28;45355;-78
2021/11/02 15:58:08;;;;;;;;;3.00;1.75;;;;;21.10;44.15;99190.19;5058570;28;45193;-78
2021/11/02 16:00:35;;;;;;;;;1.75;1.00;;;;;21.09;44.66;99195.59;5060056;28;45464;-77
2021/11/02 16:03:00;;;;;;;;;1.00;1.00;;;;;21.11;45.22;99188.41;5042167;28;45492;-79
2021/11/02 16:05:27;;;;;;;;;2.00;2.00;;;;;21.15;44.53;99195.25;5042419;28;45427;-78
2021/11/02 16:07:53;;;;;;;;;2.50;2.00;;;;;21.12;44.53;99184.81;5041533;28;45677;-76
2021/11/02 16:10:25;;;;;;;;;4.00;3.00;;;;;21.07;44.63;99181.56;5058951;28;46233;-77
2021/11/02 16:12:51;;;;;;;;;4.00;3.00;;;;;21.08;44.69;99188.59;5042405;28;45332;-77
2021/11/02 16:15:22;;;;;;;;;3.75;2.50;;;;;21.12;45.27;99182.16;5059232;28;45404;-77
2021/11/02 16:17:52;;;;;;;;;2.50;1.00;;;;;21.15;45.12;99185.47;5041626;28;45484;-77
2021/11/02 16:20:39;;;;;;;;;3.00;2.50;;;;;21.13;44.82;99176.78;5046260;28;47108;-77
2021/11/02 16:23:19;;;;;;;;;3.25;2.00;;;;;21.09;44.13;99174.38;5065062;28;46414;-76
2021/11/02 16:25:56;;;;;;;;;3.75;1.00;;;;;21.03;43.63;99175.59;5042300;28;45401;-77
2021/11/02 16:28:26;;;;;;;;;2.25;2.00;;;;;20.96;42.92;99181.34;5058448;28;45352;-78
2021/11/02 16:30:54;;;;;;;;;4.50;2.50;;;;;20.94;43.60;99177.91;5060238;28;47306;-76
2021/11/02 16:34:08;;;;;;;;;2.50;1.75;;;;;20.91;43.94;99178.94;5042130;28;45381;-77
2021/11/02 16:36:37;;;;;;;;;4.00;2.50;;;;;20.78;44.01;99154.97;5051186;28;45405;-78
2021/11/02 16:39:19;;;;;;;;;4.25;3.00;;;;;20.91;44.13;99178.09;5057853;28;45594;-79
2021/11/02 16:41:50;;;;;;;;;2.25;2.25;;;;;20.88;43.64;99173.84;5060199;28;47625;-78
2021/11/02 16:44:42;;;;;;;;;6.00;3.75;;;;;20.83;43.13;99168.78;5075431;28;45277;-79
2021/11/02 16:47:13;;;;;;;;;2.00;2.00;;;;;20.73;43.62;99148.22;5058127;28;45428;-79
2021/11/02 16:49:39;;;;;;;;;5.00;3.75;;;;;20.74;43.79;99141.97;5042527;28;45498;-78
2021/11/02 16:53:22;;;;;;;;;3.75;2.75;;;;;20.77;44.02;99158.56;5058172;28;46270;-79
2021/11/02 16:55:41;;;;;;;;;3.00;2.00;;;;;20.72;43.19;99147.34;5044772;28;45341;-79
2021/11/02 17:01:17;;;;;;;;;2.00;2.00;;;;;20.62;44.43;99135.56;5045346;28;45435;-79
2021/11/02 17:03:46;;;;;;;;;4.50;3.75;;;;;20.68;44.04;99137.88;5041419;28;46860;-78
2021/11/02 17:06:39;;;;;;;;;3.00;3.00;;;;;20.79;44.71;99155.81;5024613;28;45542;-79
2021/11/02 17:09:10;;;;;;;;;8.50;4.75;;;;;20.80;43.80;99154.88;5009443;28;46501;-79
2021/11/02 17:11:47;;;;;;;;;5.50;4.00;;;;;20.66;43.90;99155.66;5058388;28;45283;-78
2021/11/02 17:14:13;;;;;;;;;8.25;6.50;;;;;20.69;44.31;99154.63;5059006;28;45488;-80